Time;durP1;ratioP1;P1;durP2;ratioP2;P2;SDS_P1;SDS_P2;PMS_P1;PMS_P2;Temp;Humidity;BMP_temperature;BMP_pressure;BME280_temperature;BME280_humidity;BME280_pressure;Samples;Min_cycle;Max_cycle;Signal;HPM_P1;HPM_P2
2023/03/16 00:00:12;;;;;;;3.97;3.20;;;;;;;;;;5024822;28;20235;-67
2023/03/16 00:02:40;;;;;;;3.57;2.90;;;;;;;;;;5006668;28;20201;-65
2023/03/16 00:05:07;;;;;;;3.30;3.00;;;;;;;;;;5006411;28;20208;-66
2023/03/16 00:07:35;;;;;;;2.90;2.70;;;;;;;;;;5004667;28;20197;-65
2023/03/16 00:10:02;;;;;;;4.13;2.90;;;;;;;;;;5003743;28;20201;-65
2023/03/16 00:12:33;;;;;;;4.17;2.70;;;;;;;;;;5005691;28;20228;-66
2023/03/16 00:15:00;;;;;;;3.10;2.80;;;;;;;;;;5004901;28;20259;-65
2023/03/16 00:17:28;;;;;;;2.73;2.53;;;;;;;;;;5004478;28;20212;-66
2023/03/16 00:19:56;;;;;;;2.90;2.70;;;;;;;;;;5003426;28;20221;-65
2023/03/16 00:22:23;;;;;;;2.97;2.20;;;;;;;;;;5004044;28;20201;-66
2023/03/16 00:24:51;;;;;;;2.80;2.60;;;;;;;;;;5011597;28;20221;-66
2023/03/16 00:27:18;;;;;;;2.73;2.53;;;;;;;;;;5005372;28;20213;-65
2023/03/16 00:29:48;;;;;;;2.47;2.27;;;;;;;;;;5007386;28;20197;-65
2023/03/16 00:32:16;;;;;;;2.93;2.30;;;;;;;;;;5002691;28;20204;-65
2023/03/16 00:34:43;;;;;;;2.60;2.40;;;;;;;;;;5005979;28;20205;-66
2023/03/16 00:37:12;;;;;;;2.97;2.57;;;;;;;;;;5006397;28;20201;-65
2023/03/16 00:39:40;;;;;;;2.27;2.07;;;;;;;;;;5003324;28;20225;-65
2023/03/16 00:42:08;;;;;;;2.97;2.40;;;;;;;;;;5002145;28;20224;-66
2023/03/16 00:44:35;;;;;;;2.47;2.27;;;;;;;;;;5005452;28;20292;-66
2023/03/16 00:47:04;;;;;;;2.27;2.07;;;;;;;;;;5002812;28;20203;-65
2023/03/16 00:49:33;;;;;;;2.00;1.90;;;;;;;;;;5005355;28;20212;-65
2023/03/16 00:52:00;;;;;;;2.33;2.20;;;;;;;;;;4998402;28;20216;-66
2023/03/16 00:54:28;;;;;;;2.20;2.00;;;;;;;;;;5006164;28;20212;-66
2023/03/16 00:56:55;;;;;;;2.40;2.20;;;;;;;;;;5005398;28;20213;-65
2023/03/16 00:59:22;;;;;;;2.67;2.47;;;;;;;;;;5009633;28;20224;-65
2023/03/16 01:01:49;;;;;;;3.33;2.40;;;;;;;;;;5001670;28;20225;-65
2023/03/16 01:04:18;;;;;;;4.30;2.23;;;;;;;;;;5002579;28;20202;-65
2023/03/16 01:06:45;;;;;;;2.07;1.97;;;;;;;;;;5003525;28;20201;-65
2023/03/16 01:09:13;;;;;;;2.30;2.10;;;;;;;;;;5004521;28;20209;-65
2023/03/16 01:11:41;;;;;;;3.10;2.73;;;;;;;;;;5003752;28;20203;-65
2023/03/16 01:14:09;;;;;;;3.10;2.50;;;;;;;;;;5003281;28;20233;-65
2023/03/16 01:16:36;;;;;;;2.90;2.70;;;;;;;;;;5004268;28;20204;-66
2023/03/16 01:19:04;;;;;;;2.50;2.30;;;;;;;;;;5005610;28;20209;-65
2023/03/16 01:21:32;;;;;;;2.50;2.30;;;;;;;;;;5003661;28;20236;-66
2023/03/16 01:23:59;;;;;;;2.50;2.30;;;;;;;;;;5004904;28;20205;-65
2023/03/16 01:26:26;;;;;;;2.50;2.10;;;;;;;;;;5002708;28;20201;-65
2023/03/16 01:28:54;;;;;;;3.23;2.30;;;;;;;;;;4998085;28;20206;-65
2023/03/16 01:31:21;;;;;;;2.50;2.30;;;;;;;;;;5001788;28;20204;-66
2023/03/16 01:33:48;;;;;;;2.60;2.40;;;;;;;;;;5000429;28;20213;-65
2023/03/16 01:36:17;;;;;;;2.57;2.37;;;;;;;;;;5007303;28;20200;-65
2023/03/16 01:38:45;;;;;;;2.30;2.20;;;;;;;;;;5002439;28;20200;-65
2023/03/16 01:41:12;;;;;;;2.60;2.40;;;;;;;;;;5005197;28;20232;-65
2023/03/16 01:43:40;;;;;;;2.43;2.23;;;;;;;;;;5005332;28;20209;-65
2023/03/16 01:46:22;;;;;;;2.40;2.20;;;;;;;;;;5001713;28;20220;-65
2023/03/16 01:48:52;;;;;;;2.00;1.90;;;;;;;;;;5003112;28;20216;-65
2023/03/16 01:51:21;;;;;;;2.40;2.20;;;;;;;;;;5004378;28;20204;-65
2023/03/16 01:53:52;;;;;;;2.80;2.33;;;;;;;;;;5003678;28;20210;-65
2023/03/16 01:56:23;;;;;;;2.40;2.20;;;;;;;;;;5003313;28;20212;-65
2023/03/16 01:58:51;;;;;;;2.27;2.00;;;;;;;;;;5002841;28;20241;-65
2023/03/16 02:01:18;;;;;;;2.53;2.23;;;;;;;;;;5001134;28;20240;-65
2023/03/16 02:03:45;;;;;;;2.50;2.20;;;;;;;;;;5003041;28;20215;-65
2023/03/16 02:06:15;;;;;;;2.13;2.03;;;;;;;;;;5005348;28;20215;-65
2023/03/16 02:08:44;;;;;;;2.70;2.40;;;;;;;;;;5003759;28;20210;-65
2023/03/16 02:11:16;;;;;;;3.03;2.20;;;;;;;;;;5004983;28;20322;-65
2023/03/16 02:13:44;;;;;;;2.20;2.10;;;;;;;;;;5006846;28;20201;-65
2023/03/16 02:16:12;;;;;;;2.60;2.40;;;;;;;;;;5003315;28;20206;-65
2023/03/16 02:18:39;;;;;;;2.27;2.17;;;;;;;;;;5002948;28;20204;-65
2023/03/16 02:21:11;;;;;;;2.77;2.30;;;;;;;;;;5002924;28;20229;-65
2023/03/16 02:23:39;;;;;;;2.47;2.20;;;;;;;;;;5003288;28;20201;-65
2023/03/16 02:26:11;;;;;;;2.60;2.13;;;;;;;;;;5005894;28;20208;-65
2023/03/16 02:28:46;;;;;;;2.70;2.10;;;;;;;;;;5003388;28;20200;-65
2023/03/16 02:31:16;;;;;;;3.60;2.37;;;;;;;;;;5003076;28;20196;-65
2023/03/16 02:33:44;;;;;;;2.47;2.27;;;;;;;;;;5002574;28;20209;-65
2023/03/16 02:36:14;;;;;;;2.50;2.30;;;;;;;;;;5002747;28;20273;-65
2023/03/16 02:38:41;;;;;;;2.93;2.43;;;;;;;;;;5004382;28;20207;-65
2023/03/16 02:41:11;;;;;;;2.80;2.60;;;;;;;;;;5005347;28;20225;-65
2023/03/16 02:43:40;;;;;;;3.00;2.70;;;;;;;;;;5004114;28;20204;-65
2023/03/16 02:46:08;;;;;;;3.73;2.70;;;;;;;;;;5002657;28;20289;-65
2023/03/16 02:48:41;;;;;;;3.60;2.33;;;;;;;;;;5002490;28;20205;-65
2023/03/16 02:51:08;;;;;;;3.20;2.90;;;;;;;;;;5004580;28;20204;-65
2023/03/16 02:53:35;;;;;;;2.77;2.57;;;;;;;;;;5003570;28;20205;-65
2023/03/16 02:56:03;;;;;;;3.47;2.63;;;;;;;;;;4999837;28;20220;-72
2023/03/16 02:58:30;;;;;;;3.00;2.80;;;;;;;;;;5004168;28;20212;-73
2023/03/16 03:00:58;;;;;;;2.90;2.70;;;;;;;;;;5000636;28;20225;-73
2023/03/16 03:03:25;;;;;;;3.00;2.67;;;;;;;;;;5005550;28;20209;-73
2023/03/16 03:05:53;;;;;;;2.70;2.50;;;;;;;;;;5003768;28;20211;-72
2023/03/16 03:08:22;;;;;;;4.67;2.77;;;;;;;;;;5004058;28;20216;-72
2023/03/16 03:10:49;;;;;;;4.87;2.80;;;;;;;;;;5002293;28;20229;-72
2023/03/16 03:13:16;;;;;;;2.30;2.20;;;;;;;;;;5005318;28;20197;-72
2023/03/16 03:15:44;;;;;;;3.60;3.00;;;;;;;;;;5001573;28;20202;-72
2023/03/16 03:18:11;;;;;;;3.40;2.63;;;;;;;;;;4998874;28;20209;-72
2023/03/16 03:20:38;;;;;;;3.10;2.90;;;;;;;;;;5002666;28;20303;-72
2023/03/16 03:23:06;;;;;;;3.10;2.60;;;;;;;;;;5004615;28;20212;-72
2023/03/16 03:25:34;;;;;;;3.83;2.80;;;;;;;;;;5001189;28;20197;-72
2023/03/16 03:28:01;;;;;;;3.30;2.80;;;;;;;;;;5001520;28;20205;-72
2023/03/16 03:30:29;;;;;;;3.60;2.60;;;;;;;;;;4999747;28;20219;-72
2023/03/16 03:32:56;;;;;;;3.10;2.80;;;;;;;;;;5011072;28;20205;-72
2023/03/16 03:35:23;;;;;;;3.77;2.90;;;;;;;;;;5008347;28;20201;-72
2023/03/16 03:37:51;;;;;;;4.20;2.60;;;;;;;;;;5007753;28;20209;-72
2023/03/16 03:40:20;;;;;;;3.40;2.80;;;;;;;;;;5003728;28;20228;-72
2023/03/16 03:42:47;;;;;;;3.07;2.83;;;;;;;;;;5005788;28;20208;-72
2023/03/16 03:45:15;;;;;;;2.70;2.50;;;;;;;;;;5004705;28;20212;-72
2023/03/16 03:47:42;;;;;;;3.03;2.67;;;;;;;;;;5004901;28;20205;-72
2023/03/16 03:50:10;;;;;;;2.80;2.60;;;;;;;;;;5004205;28;20206;-72
2023/03/16 03:52:37;;;;;;;2.87;2.67;;;;;;;;;;5001178;28;20205;-72
2023/03/16 03:55:05;;;;;;;2.90;2.67;;;;;;;;;;5010026;28;20212;-72
2023/03/16 03:57:33;;;;;;;2.87;2.57;;;;;;;;;;5000742;28;20197;-72
2023/03/16 04:00:01;;;;;;;2.80;2.60;;;;;;;;;;5008377;28;20217;-72
2023/03/16 04:02:28;;;;;;;3.17;2.87;;;;;;;;;;5006331;28;20221;-72
2023/03/16 04:04:55;;;;;;;3.10;2.80;;;;;;;;;;5006369;28;20208;-72
2023/03/16 04:07:22;;;;;;;2.90;2.60;;;;;;;;;;5005712;28;20212;-72
2023/03/16 04:09:49;;;;;;;2.87;2.60;;;;;;;;;;5005748;28;20217;-72
2023/03/16 04:12:16;;;;;;;3.10;2.80;;;;;;;;;;5006856;28;20201;-72
2023/03/16 04:14:44;;;;;;;3.27;2.97;;;;;;;;;;5006232;28;20211;-72
2023/03/16 04:17:12;;;;;;;3.23;2.97;;;;;;;;;;5005103;28;20201;-72
2023/03/16 04:19:39;;;;;;;3.17;2.87;;;;;;;;;;4999129;28;20206;-72
2023/03/16 04:22:07;;;;;;;3.97;3.33;;;;;;;;;;5001585;28;20221;-72
2023/03/16 04:24:34;;;;;;;3.10;2.90;;;;;;;;;;5000376;28;20201;-72
2023/03/16 04:27:02;;;;;;;4.37;3.00;;;;;;;;;;5004574;28;20213;-73
2023/03/16 04:29:29;;;;;;;5.27;3.17;;;;;;;;;;5004884;28;20208;-72
2023/03/16 04:31:58;;;;;;;3.33;3.00;;;;;;;;;;5005795;28;20212;-72
2023/03/16 04:34:25;;;;;;;2.77;2.57;;;;;;;;;;5009218;28;20209;-72
2023/03/16 04:36:52;;;;;;;3.93;2.80;;;;;;;;;;5004591;28;20212;-72
2023/03/16 04:39:19;;;;;;;3.50;3.20;;;;;;;;;;5002951;28;20216;-72
2023/03/16 04:41:46;;;;;;;3.20;2.90;;;;;;;;;;5004523;28;20225;-72
2023/03/16 04:44:13;;;;;;;3.80;3.07;;;;;;;;;;5003867;28;20215;-72
2023/03/16 04:46:40;;;;;;;3.57;3.13;;;;;;;;;;5006994;28;20201;-72
2023/03/16 04:49:09;;;;;;;3.80;2.73;;;;;;;;;;5005477;28;20198;-72
2023/03/16 04:51:39;;;;;;;3.43;3.13;;;;;;;;;;5001997;28;20250;-72
2023/03/16 04:54:06;;;;;;;2.90;2.70;;;;;;;;;;5003956;28;20212;-72
2023/03/16 04:56:34;;;;;;;3.23;2.67;;;;;;;;;;5002099;28;20217;-72
2023/03/16 04:59:01;;;;;;;3.00;2.70;;;;;;;;;;5004593;28;20206;-72
2023/03/16 05:01:28;;;;;;;3.00;2.73;;;;;;;;;;5000648;28;20221;-72
2023/03/16 05:03:55;;;;;;;3.23;2.97;;;;;;;;;;5006390;28;20208;-72
2023/03/16 05:06:23;;;;;;;2.90;2.70;;;;;;;;;;5005623;28;20208;-72
2023/03/16 05:08:50;;;;;;;3.60;2.77;;;;;;;;;;5004915;28;20217;-73
2023/03/16 05:11:17;;;;;;;3.70;2.93;;;;;;;;;;5009097;28;20297;-72
2023/03/16 05:13:45;;;;;;;3.33;2.97;;;;;;;;;;5003068;28;20205;-72
2023/03/16 05:16:12;;;;;;;3.27;2.73;;;;;;;;;;5008111;28;20295;-73
2023/03/16 05:18:39;;;;;;;3.40;2.70;;;;;;;;;;5006027;28;20282;-73
2023/03/16 05:21:06;;;;;;;3.07;2.53;;;;;;;;;;5006090;28;20229;-72
2023/03/16 05:23:35;;;;;;;4.83;2.80;;;;;;;;;;5003641;28;20208;-72
2023/03/16 05:26:02;;;;;;;3.13;2.70;;;;;;;;;;5002764;28;20207;-72
2023/03/16 05:28:29;;;;;;;2.80;2.60;;;;;;;;;;5002930;28;20209;-72
2023/03/16 05:30:57;;;;;;;3.00;2.70;;;;;;;;;;5000324;28;20209;-72
2023/03/16 05:33:24;;;;;;;3.00;2.70;;;;;;;;;;5006323;28;20220;-72
2023/03/16 05:35:51;;;;;;;3.30;2.50;;;;;;;;;;4999629;28;20209;-72
2023/03/16 05:38:18;;;;;;;3.00;2.80;;;;;;;;;;5006150;28;20201;-72
2023/03/16 05:40:51;;;;;;;3.53;2.50;;;;;;;;;;5002661;28;20206;-72
2023/03/16 05:43:19;;;;;;;2.60;2.40;;;;;;;;;;5005244;28;20221;-72
2023/03/16 05:45:46;;;;;;;2.67;2.43;;;;;;;;;;5003659;28;20220;-72
2023/03/16 05:48:13;;;;;;;3.47;2.70;;;;;;;;;;5002308;28;20209;-72
2023/03/16 05:50:40;;;;;;;3.17;2.53;;;;;;;;;;5008212;28;20224;-72
2023/03/16 05:53:07;;;;;;;3.03;2.40;;;;;;;;;;5005566;28;20209;-72
2023/03/16 05:55:35;;;;;;;2.97;2.67;;;;;;;;;;5004214;28;20212;-72
2023/03/16 05:58:03;;;;;;;4.23;2.80;;;;;;;;;;5004435;28;20206;-72
2023/03/16 06:00:31;;;;;;;2.90;2.70;;;;;;;;;;5005704;28;20200;-71
2023/03/16 06:02:58;;;;;;;2.87;2.43;;;;;;;;;;5004121;28;20228;-72
2023/03/16 06:05:27;;;;;;;3.07;2.67;;;;;;;;;;5001795;28;20231;-72
2023/03/16 06:07:54;;;;;;;3.07;2.60;;;;;;;;;;5002870;28;20208;-72
2023/03/16 06:10:21;;;;;;;2.50;2.20;;;;;;;;;;5000738;28;20209;-72
2023/03/16 06:12:48;;;;;;;4.20;2.70;;;;;;;;;;5004956;28;20205;-72
2023/03/16 06:15:17;;;;;;;4.37;2.60;;;;;;;;;;5002486;28;20212;-72
2023/03/16 06:17:44;;;;;;;3.53;2.57;;;;;;;;;;5005576;28;20209;-72
2023/03/16 06:20:12;;;;;;;2.70;2.50;;;;;;;;;;5007311;28;20235;-72
2023/03/16 06:22:40;;;;;;;3.13;2.60;;;;;;;;;;5001491;28;20214;-72
2023/03/16 06:25:08;;;;;;;3.20;2.83;;;;;;;;;;5007194;28;20197;-72
2023/03/16 06:27:35;;;;;;;2.87;2.60;;;;;;;;;;5006828;28;20205;-72
2023/03/16 06:30:03;;;;;;;2.77;2.37;;;;;;;;;;5003155;28;20209;-72
2023/03/16 06:32:31;;;;;;;3.13;2.70;;;;;;;;;;5000811;28;20199;-72
2023/03/16 06:35:01;;;;;;;4.40;2.70;;;;;;;;;;5000444;28;20216;-72
2023/03/16 06:37:28;;;;;;;2.83;2.30;;;;;;;;;;5005060;28;20197;-72
2023/03/16 06:39:55;;;;;;;4.63;3.00;;;;;;;;;;5000247;28;20204;-72
2023/03/16 06:42:22;;;;;;;3.53;2.80;;;;;;;;;;5010686;28;20209;-71
2023/03/16 06:44:50;;;;;;;3.40;3.13;;;;;;;;;;5003802;28;20209;-72
2023/03/16 06:47:17;;;;;;;3.27;2.70;;;;;;;;;;5005906;28;20212;-71
2023/03/16 06:49:46;;;;;;;3.20;2.90;;;;;;;;;;4992177;28;20213;-71
2023/03/16 06:52:13;;;;;;;4.07;3.30;;;;;;;;;;5002163;28;20302;-71
2023/03/16 06:54:41;;;;;;;5.80;3.70;;;;;;;;;;4999924;28;20206;-72
2023/03/16 06:57:08;;;;;;;5.87;5.13;;;;;;;;;;5005974;28;20201;-71
2023/03/16 06:59:35;;;;;;;8.63;6.93;;;;;;;;;;5007441;28;20197;-71
2023/03/16 07:02:02;;;;;;;8.07;6.07;;;;;;;;;;5000603;28;20229;-71
2023/03/16 07:04:29;;;;;;;13.03;7.70;;;;;;;;;;5004485;28;20203;-71
2023/03/16 07:06:58;;;;;;;8.17;6.27;;;;;;;;;;5014019;28;20210;-71
2023/03/16 07:09:25;;;;;;;6.93;5.37;;;;;;;;;;5006840;28;20200;-71
2023/03/16 07:11:52;;;;;;;5.20;3.57;;;;;;;;;;5012742;28;20208;-70
2023/03/16 07:14:22;;;;;;;4.73;3.67;;;;;;;;;;5007757;28;20259;-70
2023/03/16 07:16:49;;;;;;;5.40;4.00;;;;;;;;;;5004160;28;20205;-71
2023/03/16 07:19:16;;;;;;;5.90;4.63;;;;;;;;;;5007933;28;20208;-71
2023/03/16 07:21:43;;;;;;;7.53;5.73;;;;;;;;;;5008040;28;20227;-70
2023/03/16 07:24:12;;;;;;;4.17;3.70;;;;;;;;;;5010527;28;20217;-70
2023/03/16 07:26:39;;;;;;;5.80;4.50;;;;;;;;;;5002996;28;20207;-70
2023/03/16 07:29:06;;;;;;;6.03;4.80;;;;;;;;;;5005679;28;20213;-70
2023/03/16 07:31:34;;;;;;;6.10;4.20;;;;;;;;;;5011514;28;20197;-70
2023/03/16 07:34:01;;;;;;;3.87;3.40;;;;;;;;;;5000537;28;20219;-70
2023/03/16 07:36:28;;;;;;;3.17;2.50;;;;;;;;;;5007583;28;20204;-70
2023/03/16 07:38:55;;;;;;;2.70;2.50;;;;;;;;;;5010127;28;20206;-70
2023/03/16 07:41:24;;;;;;;2.97;2.77;;;;;;;;;;5007174;28;20233;-70
2023/03/16 07:43:52;;;;;;;3.73;3.20;;;;;;;;;;5006745;28;20300;-71
2023/03/16 07:46:19;;;;;;;3.53;2.90;;;;;;;;;;5008166;28;20211;-71
2023/03/16 07:48:47;;;;;;;3.80;3.03;;;;;;;;;;5003515;28;20196;-71
2023/03/16 07:51:14;;;;;;;2.97;2.57;;;;;;;;;;5006086;28;20201;-71
2023/03/16 07:53:41;;;;;;;5.33;2.40;;;;;;;;;;5005104;28;20209;-71
2023/03/16 07:56:10;;;;;;;2.40;2.20;;;;;;;;;;5008118;28;20209;-71
2023/03/16 07:58:39;;;;;;;2.60;2.40;;;;;;;;;;5011590;28;20253;-71
2023/03/16 08:01:06;;;;;;;2.83;2.30;;;;;;;;;;5007198;28;20313;-71
2023/03/16 08:03:33;;;;;;;2.40;2.20;;;;;;;;;;5008483;28;20231;-64
2023/03/16 08:06:01;;;;;;;2.40;2.20;;;;;;;;;;5009426;28;20208;-65
2023/03/16 08:08:28;;;;;;;3.33;2.10;;;;;;;;;;5009756;28;20205;-65
2023/03/16 08:10:55;;;;;;;2.60;2.40;;;;;;;;;;5008810;28;20205;-64
2023/03/16 08:13:23;;;;;;;2.00;1.90;;;;;;;;;;5004351;28;20216;-64
2023/03/16 08:15:57;;;;;;;2.30;2.10;;;;;;;;;;5011735;28;20200;-64
2023/03/16 08:18:24;;;;;;;2.57;2.10;;;;;;;;;;5004771;28;20209;-64
2023/03/16 08:20:52;;;;;;;2.47;2.10;;;;;;;;;;5002710;28;20223;-64
2023/03/16 08:23:20;;;;;;;2.27;2.07;;;;;;;;;;5003562;28;20241;-65
2023/03/16 08:25:47;;;;;;;2.97;2.10;;;;;;;;;;5007424;28;20205;-64
2023/03/16 08:28:15;;;;;;;2.30;2.10;;;;;;;;;;5009209;28;20209;-64
2023/03/16 08:30:46;;;;;;;2.40;2.17;;;;;;;;;;5005556;28;20215;-64
2023/03/16 08:33:18;;;;;;;2.10;1.90;;;;;;;;;;5009964;28;20283;-64
2023/03/16 08:35:46;;;;;;;2.70;1.93;;;;;;;;;;5004187;28;20209;-63
2023/03/16 08:38:14;;;;;;;2.37;1.90;;;;;;;;;;5009809;28;20220;-63
2023/03/16 08:40:46;;;;;;;3.67;2.20;;;;;;;;;;5005692;28;20303;-64
2023/03/16 08:43:13;;;;;;;2.63;2.17;;;;;;;;;;5011055;28;20229;-63
2023/03/16 08:45:43;;;;;;;2.53;2.30;;;;;;;;;;4998888;28;20204;-66
2023/03/16 08:48:13;;;;;;;3.67;1.93;;;;;;;;;;4982931;28;20232;-64
2023/03/16 08:50:45;;;;;;;2.20;2.00;;;;;;;;;;5002904;28;20217;-64
2023/03/16 08:53:19;;;;;;;3.73;1.83;;;;;;;;;;5001676;28;20201;-63
2023/03/16 08:55:50;;;;;;;3.80;1.80;;;;;;;;;;4983816;28;20216;-64
2023/03/16 09:01:01;;;;;;;4.00;1.87;;;;;;;;;;5008273;28;20215;-63
2023/03/16 09:03:31;;;;;;;2.53;1.70;;;;;;;;;;5014589;28;20225;-63
2023/03/16 09:06:08;;;;;;;2.87;1.90;;;;;;;;;;5027754;28;20205;-63
2023/03/16 09:08:38;;;;;;;2.30;1.53;;;;;;;;;;5029161;28;20212;-62
2023/03/16 09:11:06;;;;;;;1.80;1.70;;;;;;;;;;5019111;28;20205;-63
2023/03/16 09:13:34;;;;;;;1.97;1.87;;;;;;;;;;5026476;28;20201;-63
2023/03/16 09:16:01;;;;;;;3.83;1.70;;;;;;;;;;5023853;28;20211;-63
2023/03/16 09:18:30;;;;;;;2.00;1.80;;;;;;;;;;5026739;28;20211;-65
2023/03/16 09:20:58;;;;;;;2.43;1.50;;;;;;;;;;5025653;28;20246;-63
2023/03/16 09:23:28;;;;;;;2.20;1.47;;;;;;;;;;5025762;28;20251;-63
2023/03/16 09:25:58;;;;;;;2.50;1.57;;;;;;;;;;5017224;28;20204;-62
2023/03/16 09:28:26;;;;;;;2.60;1.50;;;;;;;;;;5018646;28;20232;-62
2023/03/16 09:30:53;;;;;;;3.60;1.70;;;;;;;;;;5028372;28;20208;-62
2023/03/16 09:33:21;;;;;;;2.20;1.50;;;;;;;;;;5022649;28;20229;-62
2023/03/16 09:35:49;;;;;;;2.37;1.90;;;;;;;;;;5023015;28;20284;-63
2023/03/16 09:38:17;;;;;;;1.40;1.30;;;;;;;;;;5026126;28;20211;-63
2023/03/16 09:40:47;;;;;;;2.13;1.50;;;;;;;;;;5021320;28;20208;-62
2023/03/16 09:43:23;;;;;;;1.53;1.40;;;;;;;;;;5024538;28;20318;-63
2023/03/16 09:45:56;;;;;;;1.73;1.63;;;;;;;;;;5023571;28;20201;-62
2023/03/16 09:48:24;;;;;;;2.00;1.57;;;;;;;;;;5017541;28;20207;-63
2023/03/16 09:50:54;;;;;;;3.13;1.57;;;;;;;;;;5021009;28;20220;-63
2023/03/16 09:53:25;;;;;;;1.43;1.33;;;;;;;;;;5022151;28;20273;-63
2023/03/16 09:55:54;;;;;;;1.50;1.37;;;;;;;;;;5026436;28;20204;-63
2023/03/16 09:58:22;;;;;;;1.93;1.50;;;;;;;;;;5023601;28;20208;-62
2023/03/16 10:00:54;;;;;;;3.00;1.53;;;;;;;;;;5025633;28;20208;-62
2023/03/16 10:03:28;;;;;;;4.13;1.57;;;;;;;;;;5023549;28;20216;-62
2023/03/16 10:05:57;;;;;;;1.60;1.40;;;;;;;;;;5026090;28;20204;-62
2023/03/16 10:08:26;;;;;;;2.87;1.20;;;;;;;;;;5022594;28;20220;-62
2023/03/16 10:11:12;;;;;;;3.13;1.57;;;;;;;;;;5020946;28;20272;-63
2023/03/16 10:13:44;;;;;;;2.27;1.40;;;;;;;;;;5028586;28;20208;-63
2023/03/16 10:16:13;;;;;;;3.37;1.40;;;;;;;;;;5019553;28;20236;-63
2023/03/16 10:18:43;;;;;;;3.00;1.40;;;;;;;;;;5024804;28;20205;-63
2023/03/16 10:21:15;;;;;;;1.67;1.40;;;;;;;;;;5018282;28;20279;-62
2023/03/16 10:23:43;;;;;;;1.20;1.10;;;;;;;;;;5020610;28;20225;-62
2023/03/16 10:26:13;;;;;;;3.87;1.50;;;;;;;;;;5024195;28;20258;-63
2023/03/16 10:28:44;;;;;;;2.13;1.70;;;;;;;;;;5026865;28;20230;-63
2023/03/16 10:31:12;;;;;;;1.67;1.50;;;;;;;;;;5018177;28;20241;-62
2023/03/16 10:33:40;;;;;;;3.20;1.57;;;;;;;;;;5019018;28;20197;-65
2023/03/16 10:36:14;;;;;;;3.33;1.60;;;;;;;;;;5021210;28;20214;-63
2023/03/16 10:38:45;;;;;;;1.30;1.20;;;;;;;;;;5018150;28;20223;-62
2023/03/16 10:41:24;;;;;;;2.33;1.20;;;;;;;;;;5020868;28;20219;-62
2023/03/16 10:43:54;;;;;;;2.90;1.47;;;;;;;;;;5015045;28;20324;-62
2023/03/16 10:46:22;;;;;;;1.93;1.43;;;;;;;;;;5020980;28;20262;-62
2023/03/16 10:48:58;;;;;;;1.17;1.10;;;;;;;;;;5019253;28;20259;-63
2023/03/16 10:51:26;;;;;;;1.13;1.00;;;;;;;;;;5015486;28;20330;-62
2023/03/16 10:53:55;;;;;;;2.57;1.30;;;;;;;;;;5024016;28;20200;-63
2023/03/16 10:56:25;;;;;;;2.80;1.40;;;;;;;;;;5029594;28;20267;-67
2023/03/16 10:58:53;;;;;;;1.33;1.07;;;;;;;;;;5019802;28;20234;-62
2023/03/16 11:01:22;;;;;;;2.73;1.20;;;;;;;;;;5020034;28;20213;-62
2023/03/16 11:03:51;;;;;;;1.50;1.40;;;;;;;;;;5024547;28;20239;-62
2023/03/16 11:06:21;;;;;;;2.10;1.20;;;;;;;;;;5020051;28;20281;-63
2023/03/16 11:08:48;;;;;;;1.53;1.30;;;;;;;;;;5024176;28;20211;-62
2023/03/16 11:11:18;;;;;;;1.87;1.10;;;;;;;;;;5021009;28;20208;-62
2023/03/16 11:13:47;;;;;;;1.73;1.20;;;;;;;;;;5019346;28;20215;-62
2023/03/16 11:16:27;;;;;;;10.33;2.40;;;;;;;;;;5019676;28;20204;-62
2023/03/16 11:18:56;;;;;;;2.07;1.10;;;;;;;;;;5018218;28;20211;-62
2023/03/16 11:21:28;;;;;;;2.17;0.90;;;;;;;;;;5025389;28;20212;-62
2023/03/16 11:23:57;;;;;;;1.13;1.00;;;;;;;;;;5019760;28;20239;-62
2023/03/16 11:26:27;;;;;;;2.50;1.30;;;;;;;;;;5020431;28;20243;-62
2023/03/16 11:29:01;;;;;;;1.70;1.10;;;;;;;;;;5019935;28;20242;-62
2023/03/16 11:31:41;;;;;;;2.70;1.30;;;;;;;;;;5019620;28;20196;-61
2023/03/16 11:34:14;;;;;;;1.33;1.02;;;;;;;;;;5025686;28;20210;-62
2023/03/16 11:36:44;;;;;;;1.40;0.90;;;;;;;;;;5021805;28;20208;-63
2023/03/16 11:39:16;;;;;;;0.87;0.87;;;;;;;;;;5024262;28;20254;-63
2023/03/16 11:41:48;;;;;;;1.63;1.10;;;;;;;;;;5023609;28;20205;-62
2023/03/16 11:44:21;;;;;;;1.77;1.10;;;;;;;;;;5021146;28;20217;-62
2023/03/16 11:46:53;;;;;;;1.00;0.90;;;;;;;;;;5023343;28;20200;-62
2023/03/16 11:49:34;;;;;;;1.63;1.00;;;;;;;;;;5023035;28;20204;-62
2023/03/16 11:52:05;;;;;;;0.98;0.65;;;;;;;;;;5033058;28;20200;-63
2023/03/16 11:54:47;;;;;;;3.80;1.00;;;;;;;;;;5024306;28;20265;-62
2023/03/16 11:57:22;;;;;;;1.85;0.98;;;;;;;;;;5025710;28;20203;-63
2023/03/16 11:59:56;;;;;;;1.33;0.80;;;;;;;;;;5023243;28;20196;-62
2023/03/16 12:02:33;;;;;;;2.38;0.90;;;;;;;;;;5023497;28;20223;-62
2023/03/16 12:05:23;;;;;;;0.90;0.90;;;;;;;;;;5023473;28;20211;-62
2023/03/16 12:07:56;;;;;;;1.33;0.90;;;;;;;;;;5027186;28;20200;-62
2023/03/16 12:10:26;;;;;;;0.85;0.85;;;;;;;;;;5022531;28;20206;-62
2023/03/16 12:13:00;;;;;;;1.33;0.90;;;;;;;;;;5022404;28;20243;-64
2023/03/16 12:15:34;;;;;;;1.80;0.90;;;;;;;;;;5027445;28;20204;-62
2023/03/16 12:18:08;;;;;;;1.27;0.90;;;;;;;;;;5028426;28;20200;-62
2023/03/16 12:20:41;;;;;;;1.20;1.00;;;;;;;;;;5026904;28;20305;-62
2023/03/16 12:23:12;;;;;;;1.45;0.90;;;;;;;;;;5031280;28;20230;-62
2023/03/16 12:25:41;;;;;;;1.27;0.88;;;;;;;;;;5030146;28;20204;-62
2023/03/16 12:28:14;;;;;;;1.77;0.90;;;;;;;;;;5028067;28;20323;-62
2023/03/16 12:30:49;;;;;;;2.70;1.00;;;;;;;;;;5027683;28;20204;-63
2023/03/16 12:33:23;;;;;;;2.47;1.17;;;;;;;;;;5031122;28;20211;-61
2023/03/16 12:35:56;;;;;;;1.27;0.88;;;;;;;;;;5029978;28;20206;-62
2023/03/16 12:38:30;;;;;;;2.08;0.80;;;;;;;;;;5022740;28;20262;-62
2023/03/16 12:41:05;;;;;;;0.98;0.90;;;;;;;;;;5034817;28;20216;-62
2023/03/16 12:43:39;;;;;;;0.77;0.77;;;;;;;;;;5023008;28;20230;-69
2023/03/16 12:46:07;;;;;;;1.00;0.90;;;;;;;;;;5026717;28;20231;-69
2023/03/16 12:48:38;;;;;;;2.05;1.00;;;;;;;;;;5025373;28;20207;-69
2023/03/16 12:51:06;;;;;;;1.48;0.90;;;;;;;;;;5028375;28;20196;-69
2023/03/16 12:53:42;;;;;;;1.77;1.00;;;;;;;;;;5017477;28;20207;-69
2023/03/16 12:56:10;;;;;;;1.60;1.00;;;;;;;;;;5029351;28;20210;-69
2023/03/16 12:58:41;;;;;;;0.80;0.80;;;;;;;;;;5026592;28;20201;-68
2023/03/16 13:01:11;;;;;;;1.15;0.65;;;;;;;;;;5019739;28;20205;-68
2023/03/16 13:03:41;;;;;;;1.85;1.13;;;;;;;;;;5025913;28;20224;-68
2023/03/16 13:06:17;;;;;;;2.53;0.82;;;;;;;;;;5024134;28;20204;-68
2023/03/16 13:08:47;;;;;;;1.90;1.00;;;;;;;;;;5027568;28;20207;-68
2023/03/16 13:11:15;;;;;;;1.13;0.70;;;;;;;;;;5022217;28;20207;-68
2023/03/16 13:13:49;;;;;;;1.95;0.77;;;;;;;;;;5004040;28;20260;-68
2023/03/16 13:16:24;;;;;;;1.13;0.70;;;;;;;;;;5019328;28;20291;-68
2023/03/16 13:18:53;;;;;;;2.08;0.98;;;;;;;;;;5010756;28;20201;-68
2023/03/16 13:21:22;;;;;;;2.17;0.70;;;;;;;;;;5022926;28;20200;-68
2023/03/16 13:23:58;;;;;;;0.70;0.70;;;;;;;;;;5025805;28;20222;-68
2023/03/16 13:26:43;;;;;;;1.30;0.82;;;;;;;;;;5020789;28;20231;-68
2023/03/16 13:29:22;;;;;;;1.10;0.85;;;;;;;;;;5024327;28;20215;-68
2023/03/16 13:31:50;;;;;;;0.93;0.70;;;;;;;;;;5022532;28;20207;-68
2023/03/16 13:34:22;;;;;;;1.45;1.02;;;;;;;;;;5022844;28;20208;-68
2023/03/16 13:36:51;;;;;;;1.77;1.05;;;;;;;;;;5026243;28;20200;-69
2023/03/16 13:39:19;;;;;;;1.25;0.80;;;;;;;;;;5023285;28;20211;-68
2023/03/16 13:41:56;;;;;;;0.93;0.80;;;;;;;;;;5026892;28;20270;-68
2023/03/16 13:44:23;;;;;;;2.20;0.90;;;;;;;;;;5016852;28;20226;-68
2023/03/16 13:46:51;;;;;;;1.35;0.90;;;;;;;;;;5023943;28;20212;-68
2023/03/16 13:49:19;;;;;;;0.80;0.80;;;;;;;;;;5027578;28;20203;-69
2023/03/16 13:51:48;;;;;;;0.95;0.80;;;;;;;;;;5024768;28;20228;-68
2023/03/16 13:54:22;;;;;;;1.27;0.70;;;;;;;;;;5022620;28;20204;-68
2023/03/16 13:56:50;;;;;;;1.00;1.00;;;;;;;;;;5022100;28;20289;-68
2023/03/16 13:59:17;;;;;;;1.50;1.00;;;;;;;;;;5021671;28;20204;-68
2023/03/16 14:01:47;;;;;;;0.90;0.90;;;;;;;;;;5025957;28;20234;-68
2023/03/16 14:04:17;;;;;;;1.30;1.00;;;;;;;;;;5024254;28;20220;-68
2023/03/16 14:06:54;;;;;;;0.85;0.82;;;;;;;;;;5023649;28;20204;-67
2023/03/16 14:09:22;;;;;;;1.27;1.00;;;;;;;;;;5029348;28;20203;-66
2023/03/16 14:11:50;;;;;;;1.40;1.00;;;;;;;;;;5022199;28;20201;-68
2023/03/16 14:14:19;;;;;;;2.55;0.90;;;;;;;;;;5020040;28;20276;-68
2023/03/16 14:16:46;;;;;;;1.00;0.90;;;;;;;;;;5018636;28;20270;-67
2023/03/16 14:19:18;;;;;;;0.93;0.80;;;;;;;;;;5019417;28;20204;-67
2023/03/16 14:21:46;;;;;;;0.88;0.82;;;;;;;;;;5018659;28;20223;-67
2023/03/16 14:24:20;;;;;;;0.80;0.80;;;;;;;;;;5017290;28;20233;-67
2023/03/16 14:26:48;;;;;;;1.27;0.90;;;;;;;;;;5020346;28;20225;-67
2023/03/16 14:29:18;;;;;;;1.45;0.80;;;;;;;;;;5018372;28;20201;-67
2023/03/16 14:31:46;;;;;;;0.98;0.75;;;;;;;;;;5018593;28;20222;-68
2023/03/16 14:34:27;;;;;;;0.98;0.80;;;;;;;;;;5017846;28;20212;-67
2023/03/16 14:37:05;;;;;;;1.00;0.90;;;;;;;;;;5019736;28;20219;-67
2023/03/16 14:39:33;;;;;;;1.90;1.25;;;;;;;;;;5016480;28;20204;-68
2023/03/16 14:42:02;;;;;;;3.70;0.90;;;;;;;;;;5024739;28;20256;-67
2023/03/16 14:44:31;;;;;;;1.50;1.00;;;;;;;;;;5026507;28;20219;-67
2023/03/16 14:46:59;;;;;;;1.27;0.88;;;;;;;;;;5022659;28;20254;-67
2023/03/16 14:49:27;;;;;;;1.48;0.90;;;;;;;;;;5022499;28;20205;-67
2023/03/16 14:51:56;;;;;;;0.65;0.65;;;;;;;;;;5020773;28;20207;-67
2023/03/16 14:54:24;;;;;;;0.75;0.75;;;;;;;;;;5023941;28;20330;-67
2023/03/16 14:56:53;;;;;;;0.90;0.90;;;;;;;;;;5017500;28;20259;-67